Time;durP1;ratioP1;P1;durP2;ratioP2;P2;SDS_P1;SDS_P2;PMS_P1;PMS_P2;Temp;Humidity;BMP_temperature;BMP_pressure;BME280_temperature;BME280_humidity;BME280_pressure;Samples;Min_cycle;Max_cycle;Signal;HPM_P1;HPM_P2
2022/05/25 00:01:23;;;;;;;28.70;22.67;;;;;;;15.07;94.85;98580.20;4241941;82;21061;-82
2022/05/25 00:07:24;;;;;;;32.30;23.83;;;;;;;15.12;94.73;98572.06;4240113;82;21114;-81
2022/05/25 00:13:27;;;;;;;22.37;19.80;;;;;;;15.10;94.87;98576.62;4230334;82;21653;-82
2022/05/25 00:25:48;;;;;;;30.30;25.77;;;;;;;15.06;95.45;98574.52;4215393;83;22272;-83
2022/05/25 00:31:54;;;;;;;32.25;24.07;;;;;;;15.03;95.59;98576.73;4215752;83;21023;-82
2022/05/25 00:38:02;;;;;;;31.15;24.65;;;;;;;15.00;95.87;98587.80;4167072;84;21513;-82
2022/05/25 00:44:05;;;;;;;24.65;20.82;;;;;;;15.00;96.12;98602.95;4215999;82;21869;-83
2022/05/25 00:50:12;;;;;;;24.05;19.20;;;;;;;15.03;96.05;98599.37;4213633;83;21053;-82
2022/05/25 00:56:18;;;;;;;27.50;21.23;;;;;;;15.11;96.00;98600.84;4183101;83;21035;-82
2022/05/25 01:02:21;;;;;;;22.82;20.37;;;;;;;15.06;95.98;98601.30;4298792;82;21016;-82
2022/05/25 01:08:58;;;;;;;23.98;17.90;;;;;;;15.06;95.98;98601.30;4316551;82;21022;-82
2022/05/25 01:15:22;;;;;;;27.95;22.52;;;;;;;15.09;96.07;98619.17;4281544;82;21472;-81
2022/05/25 01:21:36;;;;;;;28.65;22.58;;;;;;;15.11;96.17;98620.90;4287932;82;21069;-82
2022/05/25 01:27:53;;;;;;;26.25;21.25;;;;;;;15.09;96.51;98626.66;4294123;82;21084;-82
2022/05/25 01:34:01;;;;;;;25.90;21.30;;;;;;;15.06;96.84;98630.23;4270296;82;21575;-82
2022/05/25 01:54:24;;;;;;;28.70;21.27;;;;;;;14.98;96.98;98637.03;4281914;81;21570;-82
2022/05/25 02:00:41;;;;;;;23.92;20.27;;;;;;;14.98;97.18;98637.82;4315649;81;20979;-82
2022/05/25 02:07:22;;;;;;;27.52;22.22;;;;;;;14.99;97.39;98643.51;4310950;81;21025;-82
2022/05/25 02:13:57;;;;;;;24.75;21.85;;;;;;;15.00;97.55;98647.05;4297188;81;21018;-82
2022/05/25 02:20:30;;;;;;;28.85;24.07;;;;;;;15.01;97.32;98641.12;4304260;81;21050;-82
2022/05/25 02:26:42;;;;;;;27.58;23.60;;;;;;;14.99;97.79;98647.64;4303951;80;21075;-82
2022/05/25 02:32:58;;;;;;;28.30;23.90;;;;;;;14.99;98.04;98646.84;4307896;81;21081;-82
2022/05/25 02:39:09;;;;;;;23.30;20.72;;;;;;;14.98;98.16;98639.20;4313362;81;21476;-82
2022/05/25 02:45:12;;;;;;;27.10;23.00;;;;;;;14.95;98.35;98635.89;4294154;81;21491;-82
2022/05/25 02:51:17;;;;;;;28.75;24.70;;;;;;;14.98;98.21;98638.41;4304788;81;21021;-82
2022/05/25 02:57:19;;;;;;;24.70;21.57;;;;;;;14.94;98.34;98636.30;4271009;81;21516;-82
2022/05/25 03:03:21;;;;;;;28.70;23.77;;;;;;;14.94;98.63;98639.06;4243252;82;21993;-82
2022/05/25 03:09:22;;;;;;;31.50;24.52;;;;;;;14.87;98.51;98628.11;4233936;82;21050;-82
2022/05/25 03:15:23;;;;;;;29.75;24.32;;;;;;;14.87;99.08;98632.23;4264887;82;20978;-82
2022/05/25 03:21:29;;;;;;;30.30;22.42;;;;;;;14.90;98.95;98639.09;4227728;82;21025;-82
2022/05/25 03:27:29;;;;;;;22.93;20.45;;;;;;;14.88;98.40;98651.70;4157666;84;21137;-83
2022/05/25 03:33:34;;;;;;;27.45;21.55;;;;;;;14.87;99.21;98655.66;4091579;84;21474;-83
2022/05/25 03:39:35;;;;;;;29.60;23.65;;;;;;;14.94;99.34;98653.60;4293071;81;61012;-82
2022/05/25 03:45:38;;;;;;;28.67;24.43;;;;;;;14.99;99.39;98646.27;4341994;81;21653;-83
2022/05/25 03:51:42;;;;;;;25.25;22.25;;;;;;;15.00;99.56;98642.30;4287130;81;20995;-83
2022/05/25 03:57:47;;;;;;;27.90;22.40;;;;;;;14.98;99.61;98659.08;4312936;81;21009;-82
2022/05/25 04:03:48;;;;;;;24.77;21.75;;;;;;;14.98;99.80;98646.67;4326961;81;21350;-83
2022/05/25 04:09:49;;;;;;;29.18;23.32;;;;;;;14.96;100.00;98651.81;4329860;81;21013;-83
2022/05/25 04:15:51;;;;;;;28.05;22.22;;;;;;;14.98;99.56;98656.33;4320691;81;20971;-82
2022/05/25 04:22:04;;;;;;;28.73;23.65;;;;;;;14.97;100.00;98658.29;4338277;81;21162;-84
2022/05/25 04:28:17;;;;;;;30.75;24.07;;;;;;;15.03;100.00;98656.67;4319589;81;21658;-83
2022/05/25 04:41:23;;;;;;;25.77;20.85;;;;;;;14.99;100.00;98665.55;4155528;82;21007;-83
2022/05/25 04:47:24;;;;;;;30.90;24.50;;;;;;;15.03;100.00;98673.20;4237973;81;21581;-83
2022/05/25 04:53:26;;;;;;;31.07;24.15;;;;;;;15.06;100.00;98674.34;4301626;80;20993;-83
2022/05/25 04:59:28;;;;;;;31.02;24.12;;;;;;;15.13;100.00;98668.73;4330063;80;21101;-83
2022/05/25 05:05:29;;;;;;;27.40;22.55;;;;;;;15.18;100.00;98669.66;4334118;80;21048;-84
2022/05/25 05:11:40;;;;;;;26.30;21.17;;;;;;;15.24;100.00;98672.93;4348306;81;22226;-83
2022/05/25 05:18:08;;;;;;;25.00;20.75;;;;;;;15.33;100.00;98662.78;4332596;81;20992;-83
2022/05/25 05:24:34;;;;;;;31.57;21.82;;;;;;;15.40;100.00;98661.33;4332360;80;21074;-83
2022/05/25 05:37:36;;;;;;;27.87;21.55;;;;;;;15.46;100.00;98653.56;4351923;81;20958;-82
2022/05/25 05:43:38;;;;;;;27.22;22.48;;;;;;;15.49;100.00;98647.20;4349517;81;21128;-83
2022/05/25 05:50:28;;;;;;;29.15;23.52;;;;;;;15.55;100.00;98650.30;4324479;81;21014;-83
2022/05/25 05:56:40;;;;;;;25.92;22.67;;;;;;;15.66;100.00;98663.31;4338576;81;21085;-84
2022/05/25 06:02:50;;;;;;;30.62;21.25;;;;;;;15.75;100.00;98653.94;4340160;81;20959;-83
2022/05/25 06:08:52;;;;;;;29.67;24.10;;;;;;;15.79;100.00;98646.97;4337033;81;21037;-83
2022/05/25 06:22:07;;;;;;;26.12;22.10;;;;;;;15.99;100.00;98663.80;4322307;80;22309;-82
2022/05/25 06:28:08;;;;;;;29.70;23.57;;;;;;;16.14;100.00;98665.75;4355484;81;21055;-84
2022/05/25 06:34:24;;;;;;;26.10;22.00;;;;;;;16.24;100.00;98666.18;4318814;81;21022;-84
2022/05/25 06:47:39;;;;;;;27.45;19.23;;;;;;;16.44;100.00;98649.88;4331452;81;21078;-83
2022/05/25 06:53:47;;;;;;;20.85;16.30;;;;;;;16.49;100.00;98632.79;4344704;81;21035;-83
2022/05/25 06:59:49;;;;;;;25.15;17.52;;;;;;;16.66;100.00;98642.73;4321595;81;21392;-85
2022/05/25 07:05:50;;;;;;;19.00;16.00;;;;;;;16.81;100.00;98645.42;4343363;81;21070;-83
2022/05/25 07:19:05;;;;;;;21.57;16.00;;;;;;;17.34;100.00;98666.46;4326674;81;21036;-82
2022/05/25 07:25:25;;;;;;;18.23;14.80;;;;;;;17.54;100.00;98667.86;4339994;81;21030;-83
2022/05/25 07:31:57;;;;;;;15.68;14.07;;;;;;;17.59;100.00;98663.97;4304711;81;21886;-83
2022/05/25 07:38:08;;;;;;;18.20;14.03;;;;;;;17.53;100.00;98657.98;4305076;81;21359;-83
2022/05/25 07:44:17;;;;;;;16.87;13.68;;;;;;;17.46;99.87;98651.23;4346509;79;21077;-83
2022/05/25 07:50:31;;;;;;;21.15;16.35;;;;;;;17.49;100.00;98660.06;4309241;80;21013;-83
2022/05/25 07:56:44;;;;;;;23.67;16.30;;;;;;;17.69;99.67;98650.50;4314556;81;21014;-83
2022/05/25 08:09:30;;;;;;;23.85;17.07;;;;;;;17.98;98.65;98662.47;4362072;80;21074;-83
2022/05/25 08:15:33;;;;;;;21.57;18.45;;;;;;;17.99;98.63;98675.72;4375694;80;21022;-84
2022/05/25 08:21:38;;;;;;;24.12;17.70;;;;;;;18.00;98.68;98679.44;4371250;79;20931;-83
2022/05/25 08:27:55;;;;;;;26.10;20.25;;;;;;;18.11;98.52;98677.80;4419878;80;21038;-83
2022/05/25 08:34:10;;;;;;;22.60;19.48;;;;;;;18.16;98.38;98676.69;4346457;80;21054;-83
2022/05/25 08:40:21;;;;;;;24.50;21.50;;;;;;;18.13;98.27;98690.02;4377214;80;21058;-83
2022/05/25 08:46:29;;;;;;;30.48;23.42;;;;;;;18.02;98.11;98685.34;4381982;80;21051;-83
2022/05/25 08:52:39;;;;;;;26.17;22.13;;;;;;;18.02;98.55;98681.18;4370451;80;21637;-83
2022/05/25 09:05:20;;;;;;;25.15;18.37;;;;;;;18.59;98.47;98675.80;4325847;80;21351;-81
2022/05/25 09:11:31;;;;;;;22.42;18.52;;;;;;;19.17;97.84;98664.73;4340553;81;21007;-82
2022/05/25 09:18:03;;;;;;;24.47;20.30;;;;;;;19.53;96.76;98677.16;4338443;81;21106;-83
2022/05/25 09:24:22;;;;;;;22.87;18.62;;;;;;;19.53;96.40;98686.88;4340519;81;21584;-83
2022/05/25 09:30:45;;;;;;;24.23;20.00;;;;;;;19.40;95.59;98690.85;4331412;80;21026;-84
2022/05/25 09:36:55;;;;;;;30.12;20.92;;;;;;;19.29;95.21;98687.60;4347576;80;21064;-83
2022/05/25 09:42:57;;;;;;;24.52;18.90;;;;;;;19.33;95.38;98691.83;4338523;80;21045;-84
2022/05/25 09:49:06;;;;;;;30.45;21.75;;;;;;;19.39;94.84;98685.90;4331590;81;21006;-83
2022/05/25 09:55:46;;;;;;;22.42;19.42;;;;;;;19.39;94.63;98690.06;4330933;80;21432;-84
2022/05/25 10:01:49;;;;;;;20.12;16.90;;;;;;;19.27;94.10;98693.56;4329356;80;21616;-83
2022/05/25 10:08:15;;;;;;;19.77;17.10;;;;;;;19.00;93.73;98695.11;4326091;79;21058;-84
2022/05/25 10:14:31;;;;;;;22.25;18.12;;;;;;;18.78;93.65;98696.30;4333601;81;21614;-82
2022/05/25 10:20:47;;;;;;;23.95;18.40;;;;;;;18.57;93.50;98694.09;4335314;81;21084;-83
2022/05/25 10:26:52;;;;;;;32.40;18.13;;;;;;;18.39;93.51;98701.47;4337312;81;20970;-83
2022/05/25 10:39:30;;;;;;;24.67;20.55;;;;;;;18.05;93.62;98712.16;4336866;81;21566;-83
2022/05/25 10:45:41;;;;;;;23.42;20.00;;;;;;;17.92;93.68;98720.96;4325794;81;21063;-84
2022/05/25 10:51:53;;;;;;;25.90;22.30;;;;;;;17.75;93.81;98721.35;4342519;81;20998;-83
2022/05/25 10:58:18;;;;;;;27.60;20.92;;;;;;;17.56;93.63;98734.61;4337156;80;21028;-83
2022/05/25 11:04:33;;;;;;;25.92;20.55;;;;;;;17.37;93.89;98733.39;4320027;81;20959;-82
2022/05/25 11:10:58;;;;;;;33.63;22.22;;;;;;;17.27;94.33;98746.84;4315288;81;21024;-83
2022/05/25 11:17:17;;;;;;;16.00;10.75;;;;;;;17.19;94.87;98746.80;4311208;81;20991;-84
2022/05/25 11:23:33;;;;;;;16.20;6.03;;;;;;;16.75;94.50;98767.95;4288364;81;21113;-84
2022/05/25 11:29:46;;;;;;;14.93;4.25;;;;;;;16.08;94.43;98775.11;4271763;82;21109;-86
2022/05/25 11:36:22;;;;;;;8.28;4.47;;;;;;;15.55;94.67;98773.83;4295480;82;21047;-84
2022/05/25 11:42:47;;;;;;;14.58;5.80;;;;;;;15.46;94.82;98775.52;4217920;83;21561;-85
2022/05/25 11:49:22;;;;;;;10.75;4.70;;;;;;;15.40;95.04;98781.31;4266720;81;21045;-84
2022/05/25 11:55:41;;;;;;;12.98;5.25;;;;;;;15.36;95.26;98806.75;4280903;80;21093;-84
2022/05/25 12:01:57;;;;;;;14.00;3.40;;;;;;;15.27;95.29;98840.31;4267395;82;21578;-84
2022/05/25 12:08:34;;;;;;;14.43;3.70;;;;;;;15.16;95.39;98857.56;4268282;82;21030;-83
2022/05/25 12:15:09;;;;;;;8.75;4.58;;;;;;;14.94;94.65;98858.17;4280385;82;21978;-83
2022/05/25 12:21:17;;;;;;;11.43;5.12;;;;;;;14.85;95.50;98882.05;4284561;82;21993;-81
2022/05/25 12:27:27;;;;;;;10.95;4.87;;;;;;;14.81;95.38;98884.06;4318194;81;21022;-81
2022/05/25 12:33:30;;;;;;;11.10;4.58;;;;;;;14.74;95.94;98893.75;4317464;81;21609;-80
2022/05/25 12:39:53;;;;;;;9.15;4.67;;;;;;;14.75;96.25;98902.19;4318195;81;21454;-81
2022/05/25 12:53:16;;;;;;;11.85;5.28;;;;;;;14.67;96.08;98911.72;4290435;82;21023;-82
2022/05/25 12:59:39;;;;;;;9.75;5.87;;;;;;;14.59;96.25;98913.53;4302590;82;21051;-83
2022/05/25 13:06:06;;;;;;;9.25;4.42;;;;;;;14.51;96.41;98892.72;4292776;81;21077;-83
2022/05/25 13:19:55;;;;;;;8.88;6.28;;;;;;;14.51;96.87;98923.81;4299536;81;21520;-83
2022/05/25 13:26:51;;;;;;;7.87;6.30;;;;;;;14.28;96.56;98926.30;4286754;81;20962;-85
2022/05/25 13:39:47;;;;;;;5.70;3.67;;;;;;;13.61;95.62;98973.25;4287781;81;21084;-83
2022/05/25 13:45:56;;;;;;;6.20;3.20;;;;;;;13.50;96.34;98977.20;4278788;81;21034;-83
2022/05/25 13:52:19;;;;;;;13.20;4.60;;;;;;;13.41;96.58;98972.09;4293483;81;21018;-83
2022/05/25 13:58:47;;;;;;;4.45;3.20;;;;;;;13.44;96.82;98985.05;4291278;81;21413;-83
2022/05/25 14:11:59;;;;;;;4.90;4.22;;;;;;;13.47;97.53;98991.72;4255407;82;20157;-83
2022/05/25 14:18:29;;;;;;;8.63;4.70;;;;;;;13.51;97.47;99004.89;4181042;84;21022;-82
2022/05/25 14:51:16;;;;;;;6.17;4.97;;;;;;;13.73;97.41;99014.09;4303914;81;21487;-83
2022/05/25 14:57:34;;;;;;;6.05;4.60;;;;;;;13.70;97.31;99023.74;4307454;81;21065;-83
2022/05/25 15:11:43;;;;;;;4.67;3.60;;;;;;;13.71;97.10;99022.55;3958845;87;21133;-83
2022/05/25 15:24:36;;;;;;;5.03;4.28;;;;;;;13.56;97.31;99056.15;4054860;85;21212;-83
2022/05/25 15:31:11;;;;;;;8.28;4.97;;;;;;;13.46;96.81;99062.45;4096008;85;21477;-84
2022/05/25 15:37:46;;;;;;;6.75;5.42;;;;;;;13.12;96.95;99063.98;3925412;90;22002;-83
2022/05/25 15:43:53;;;;;;;7.67;6.87;;;;;;;13.04;97.51;99077.50;3824785;90;21067;-83
2022/05/25 15:50:22;;;;;;;5.87;5.33;;;;;;;13.00;98.10;99075.89;3928003;90;21534;-83
2022/05/25 15:57:07;;;;;;;7.03;5.30;;;;;;;13.06;98.27;99076.51;3967424;87;21173;-83
2022/05/25 16:03:43;;;;;;;8.10;7.12;;;;;;;12.90;97.81;99056.83;4331340;80;21065;-83
2022/05/25 16:10:34;;;;;;;7.12;6.37;;;;;;;12.82;99.01;99052.48;4323810;80;21064;-83
2022/05/25 16:16:50;;;;;;;7.97;6.80;;;;;;;12.79;98.99;99080.73;4308165;81;21070;-83
2022/05/25 16:22:56;;;;;;;10.53;7.28;;;;;;;12.89;99.65;99097.83;4373114;81;21049;-82
2022/05/25 16:29:02;;;;;;;8.78;7.20;;;;;;;12.88;98.59;99088.59;4338270;80;21021;-82
2022/05/25 16:35:06;;;;;;;8.23;7.33;;;;;;;12.72;98.76;99063.45;4348287;81;21987;-83
2022/05/25 16:41:10;;;;;;;9.85;7.72;;;;;;;12.77;99.79;99085.02;4316073;81;20976;-82
2022/05/25 16:47:15;;;;;;;12.40;8.18;;;;;;;12.87;99.46;99096.65;4385051;81;21017;-83
2022/05/25 16:53:36;;;;;;;8.25;7.42;;;;;;;12.78;99.26;99088.76;4265545;81;21010;-82
2022/05/25 16:59:54;;;;;;;9.15;8.23;;;;;;;12.75;99.90;99088.77;4192882;83;21488;-82
2022/05/25 17:05:59;;;;;;;8.95;7.55;;;;;;;12.89;100.00;99095.69;4312784;81;21041;-82
2022/05/25 17:12:04;;;;;;;9.68;7.53;;;;;;;12.86;100.00;99096.46;4226866;83;20993;-82
2022/05/25 17:24:47;;;;;;;11.68;7.28;;;;;;;12.98;100.00;99112.01;4293692;82;20978;-82
2022/05/25 17:30:54;;;;;;;12.93;8.90;;;;;;;13.05;100.00;99118.12;4274569;81;20998;-83
2022/05/25 17:43:22;;;;;;;12.98;9.78;;;;;;;12.98;100.00;99129.07;4185421;84;20989;-83
2022/05/25 17:49:50;;;;;;;16.35;8.78;;;;;;;12.93;100.00;99114.33;4284661;82;21056;-82
2022/05/25 17:56:12;;;;;;;15.45;11.50;;;;;;;12.93;100.00;99115.13;4277199;82;20959;-82
2022/05/25 18:02:22;;;;;;;15.53;12.88;;;;;;;12.82;100.00;99124.48;4255183;82;21018;-83
2022/05/25 18:08:35;;;;;;;19.55;11.45;;;;;;;12.75;100.00;99110.73;4306463;80;21030;-82
2022/05/25 18:15:05;;;;;;;18.27;13.93;;;;;;;12.78;100.00;99119.58;4274236;82;21065;-82
2022/05/25 18:21:08;;;;;;;14.23;11.33;;;;;;;12.77;100.00;99105.62;4277344;82;20973;-82
2022/05/25 18:27:39;;;;;;;15.68;13.85;;;;;;;12.77;100.00;99122.11;4210693;83;21057;-82
2022/05/25 18:33:42;;;;;;;17.07;12.78;;;;;;;12.83;100.00;99117.23;4273012;82;21117;-82
2022/05/25 18:39:53;;;;;;;16.82;13.98;;;;;;;12.80;100.00;99115.26;4216552;83;21044;-83
2022/05/25 18:45:59;;;;;;;14.53;13.03;;;;;;;12.76;100.00;99119.97;4213532;82;21483;-83
2022/05/25 18:52:19;;;;;;;19.15;14.40;;;;;;;12.81;100.00;99137.42;4217873;83;21520;-82
2022/05/25 18:58:20;;;;;;;20.97;14.03;;;;;;;12.79;100.00;99156.85;4213950;83;21008;-82
2022/05/25 19:04:26;;;;;;;18.07;14.90;;;;;;;12.81;100.00;99165.50;4239385;83;21025;-82
2022/05/25 19:10:31;;;;;;;21.20;17.27;;;;;;;12.78;100.00;99172.53;4205767;83;21093;-82
2022/05/25 19:16:33;;;;;;;26.30;18.80;;;;;;;12.75;100.00;99184.91;4172585;83;21046;-82
2022/05/25 19:23:08;;;;;;;24.95;17.67;;;;;;;12.67;100.00;99186.03;4214882;83;21030;-82
2022/05/25 19:29:21;;;;;;;26.73;18.70;;;;;;;12.61;100.00;99185.02;4283729;82;21007;-81
2022/05/25 19:35:43;;;;;;;24.27;17.07;;;;;;;12.58;100.00;99184.41;4348755;82;20975;-81
2022/05/25 19:41:51;;;;;;;24.98;17.95;;;;;;;12.62;100.00;99188.56;4280432;82;21018;-81
2022/05/25 19:47:57;;;;;;;25.10;18.85;;;;;;;12.67;100.00;99199.77;4284586;82;21069;-82
2022/05/25 19:54:05;;;;;;;23.50;17.52;;;;;;;12.64;100.00;99205.42;4279936;82;20964;-82
2022/05/25 20:00:14;;;;;;;20.85;15.25;;;;;;;12.45;100.00;99203.73;4281066;82;21056;-82
2022/05/25 20:06:16;;;;;;;23.52;15.78;;;;;;;12.30;100.00;99196.58;4277263;82;21137;-82
2022/05/25 20:12:17;;;;;;;20.88;16.02;;;;;;;12.33;100.00;99197.19;4252079;82;21033;-82
2022/05/25 20:18:28;;;;;;;17.62;14.75;;;;;;;12.26;100.00;99208.09;4257870;83;21052;-82
2022/05/25 20:24:35;;;;;;;17.30;14.13;;;;;;;12.24;100.00;99193.19;4333147;81;21094;-81
2022/05/25 20:30:38;;;;;;;20.10;12.70;;;;;;;12.16;100.00;99199.22;4323461;81;21128;-81
2022/05/25 20:36:39;;;;;;;16.10;13.28;;;;;;;12.26;100.00;99198.49;4250128;83;21090;-82
2022/05/25 20:42:42;;;;;;;18.57;15.00;;;;;;;12.33;100.00;99202.67;4255964;81;21048;-81
2022/05/25 20:48:51;;;;;;;18.90;16.12;;;;;;;12.39;100.00;99215.45;4325018;81;21026;-82
2022/05/25 20:55:13;;;;;;;22.22;15.80;;;;;;;12.31;100.00;99205.01;4318673;81;20947;-81
2022/05/25 21:01:15;;;;;;;23.32;18.82;;;;;;;12.25;100.00;99205.73;4325057;81;20986;-84
2022/05/25 21:07:18;;;;;;;23.55;17.60;;;;;;;12.17;100.00;99199.98;4330314;81;21018;-81
2022/05/25 21:13:23;;;;;;;30.12;21.10;;;;;;;12.07;100.00;99197.39;4336936;81;21024;-82
2022/05/25 21:19:26;;;;;;;28.45;20.52;;;;;;;11.97;100.00;99196.70;4341217;81;22102;-81
2022/05/25 21:25:34;;;;;;;29.72;21.45;;;;;;;11.89;100.00;99182.71;4336617;81;21049;-83
2022/05/25 21:38:06;;;;;;;27.80;22.30;;;;;;;11.84;100.00;99200.88;4335676;81;21108;-81
2022/05/25 21:44:08;;;;;;;26.77;20.80;;;;;;;11.74;100.00;99199.42;4344357;81;22070;-81
2022/05/25 21:50:12;;;;;;;25.08;19.45;;;;;;;11.62;100.00;99201.81;4334178;81;21011;-80
2022/05/25 21:56:14;;;;;;;22.85;19.35;;;;;;;11.55;100.00;99207.23;4326811;81;21067;-82
2022/05/25 22:02:15;;;;;;;25.35;19.15;;;;;;;11.57;100.00;99196.69;4348080;81;21041;-81
2022/05/25 22:08:17;;;;;;;27.87;20.72;;;;;;;11.64;100.00;99205.58;4341824;81;21138;-82
2022/05/25 22:14:21;;;;;;;25.57;19.40;;;;;;;11.44;100.00;99198.11;4332624;79;21498;-82
2022/05/25 22:20:28;;;;;;;23.83;18.32;;;;;;;11.48;100.00;99195.41;4336663;81;21788;-82
2022/05/25 22:33:03;;;;;;;23.65;18.60;;;;;;;11.37;100.00;99192.53;4329847;81;21053;-81
2022/05/25 22:39:08;;;;;;;25.43;17.80;;;;;;;11.19;100.00;99203.09;4346536;81;21037;-81
2022/05/25 22:45:11;;;;;;;23.85;17.52;;;;;;;11.19;100.00;99205.83;4348048;81;21538;-82
2022/05/25 22:51:12;;;;;;;25.20;18.37;;;;;;;11.18;100.00;99211.12;4340414;81;21030;-81
2022/05/25 22:57:16;;;;;;;24.18;16.73;;;;;;;10.98;100.00;99217.31;4339105;81;22047;-82
2022/05/25 23:03:17;;;;;;;23.85;17.87;;;;;;;10.91;100.00;99229.56;4328063;81;21047;-82
2022/05/25 23:09:19;;;;;;;21.87;16.45;;;;;;;10.78;100.00;99219.98;4346995;81;22150;-81
2022/05/25 23:15:22;;;;;;;23.62;18.17;;;;;;;10.56;100.00;99219.47;4347985;81;21018;-81
2022/05/25 23:21:29;;;;;;;23.75;17.85;;;;;;;10.39;100.00;99218.63;4284036;82;20994;-81
2022/05/25 23:27:46;;;;;;;23.00;17.10;;;;;;;10.18;100.00;99219.09;4352060;81;20996;-82
2022/05/25 23:33:48;;;;;;;25.43;18.90;;;;;;;10.12;100.00;99224.66;4339167;81;21042;-82
2022/05/25 23:40:00;;;;;;;20.43;15.98;;;;;;;10.10;100.00;99212.52;4264136;81;21043;-82
2022/05/25 23:46:02;;;;;;;21.75;15.30;;;;;;;10.18;100.00;99216.95;4301377;81;21543;-82
2022/05/25 23:52:03;;;;;;;22.17;15.50;;;;;;;10.22;100.00;99217.78;4266468;81;22089;-81
2022/05/25 23:58:05;;;;;;;17.80;13.60;;;;;;;10.20;100.00;99219.52;4266356;82;21539;-81
